Time;durP1;ratioP1;P1;durP2;ratioP2;P2;SDS_P1;SDS_P2;PMS_P1;PMS_P2;Temp;Humidity;BMP_temperature;BMP_pressure;BME280_temperature;BME280_humidity;BME280_pressure;Samples;Min_cycle;Max_cycle;Signal;HPM_P1;HPM_P2
2021/03/18 00:01:10;;;;;;;27.40;19.17;;;128.50;2252.80;;;;;;4777694;30;20054;-86
2021/03/18 00:03:38;;;;;;;33.73;21.27;;;128.40;2252.80;;;;;;4760292;30;20173;-86
2021/03/18 00:06:05;;;;;;;32.33;20.30;;;128.40;2252.80;;;;;;4759093;30;20106;-85
2021/03/18 00:08:31;;;;;;;26.07;16.67;;;128.30;2252.80;;;;;;4759288;30;20055;-85
2021/03/18 00:10:57;;;;;;;27.03;17.30;;;128.40;2252.80;;;;;;4760879;30;20093;-85
2021/03/18 00:13:27;;;;;;;25.57;17.20;;;128.10;2252.80;;;;;;4761133;30;20039;-86
2021/03/18 00:15:53;;;;;;;23.93;16.23;;;128.30;2252.80;;;;;;4775189;30;20070;-84
2021/03/18 00:18:20;;;;;;;22.90;14.83;;;128.30;2252.80;;;;;;4771331;30;20031;-85
2021/03/18 00:20:47;;;;;;;26.10;15.80;;;128.30;2252.80;;;;;;4773627;30;20048;-83
2021/03/18 00:23:14;;;;;;;23.73;15.40;;;128.30;2252.80;;;;;;4762915;30;20416;-86
2021/03/18 00:25:40;;;;;;;19.57;13.47;;;128.30;2252.80;;;;;;4760564;30;20034;-87
2021/03/18 00:28:07;;;;;;;24.90;16.73;;;128.30;2252.80;;;;;;4760546;30;20123;-89
2021/03/18 00:30:33;;;;;;;24.07;14.53;;;128.20;2252.80;;;;;;4761151;30;20032;-85
2021/03/18 00:32:59;;;;;;;20.20;14.83;;;128.20;2252.80;;;;;;4762600;30;20080;-85
2021/03/18 00:35:28;;;;;;;24.77;16.37;;;128.20;2252.80;;;;;;4760271;30;20028;-87
2021/03/18 00:37:54;;;;;;;28.60;18.33;;;128.30;2252.80;;;;;;4760773;30;20134;-86
2021/03/18 00:40:34;;;;;;;32.67;19.03;;;128.30;2252.80;;;;;;4761640;30;20043;-85
2021/03/18 00:43:03;;;;;;;27.83;17.97;;;128.30;2252.80;;;;;;4761164;30;20039;-85
2021/03/18 00:45:31;;;;;;;25.90;16.37;;;128.30;2252.80;;;;;;4761058;30;20027;-86
2021/03/18 00:47:58;;;;;;;26.53;17.37;;;128.30;2252.80;;;;;;4761883;30;20023;-85
2021/03/18 00:50:50;;;;;;;26.27;16.17;;;128.40;2252.80;;;;;;4760548;30;20063;-85
2021/03/18 00:53:24;;;;;;;22.50;14.20;;;128.30;2252.80;;;;;;4761452;30;20032;-87
2021/03/18 00:55:51;;;;;;;21.53;14.27;;;128.30;2252.80;;;;;;4761923;30;20039;-86
2021/03/18 00:58:19;;;;;;;25.27;16.23;;;128.30;2252.80;;;;;;4761979;30;20040;-88
2021/03/18 01:00:58;;;;;;;28.83;16.40;;;128.40;2252.80;;;;;;4760842;30;20134;-87
2021/03/18 01:03:26;;;;;;;29.23;16.47;;;128.40;2252.80;;;;;;4760772;30;20105;-86
2021/03/18 01:05:51;;;;;;;25.00;17.27;;;128.40;2252.80;;;;;;4760727;30;20034;-86
2021/03/18 01:08:22;;;;;;;24.20;15.63;;;128.40;2252.80;;;;;;4761217;30;20027;-86
2021/03/18 01:10:52;;;;;;;21.47;13.37;;;128.40;2252.80;;;;;;4761203;30;20035;-86
2021/03/18 01:13:21;;;;;;;23.23;15.23;;;128.40;2252.80;;;;;;4747690;30;20048;-85
2021/03/18 01:15:54;;;;;;;28.37;16.67;;;128.40;2252.80;;;;;;4746279;30;20117;-86
2021/03/18 01:18:23;;;;;;;21.33;15.27;;;128.40;2252.80;;;;;;4760912;30;20028;-86
2021/03/18 01:20:49;;;;;;;24.60;16.43;;;128.30;2252.80;;;;;;4760868;30;20044;-85
2021/03/18 01:23:15;;;;;;;23.37;15.03;;;128.30;2252.80;;;;;;4761088;30;20036;-86
2021/03/18 01:25:42;;;;;;;24.90;15.63;;;128.30;2252.80;;;;;;4761705;30;20115;-86
2021/03/18 01:28:11;;;;;;;24.77;16.87;;;128.30;2252.80;;;;;;4762038;30;20028;-86
2021/03/18 01:30:41;;;;;;;23.53;16.03;;;128.30;2252.80;;;;;;4760977;30;20040;-86
2021/03/18 01:33:08;;;;;;;23.73;14.90;;;128.30;2252.80;;;;;;4757844;30;20059;-87
2021/03/18 01:35:36;;;;;;;21.23;15.10;;;128.30;2252.80;;;;;;4759293;30;20035;-87
2021/03/18 01:38:04;;;;;;;23.73;13.77;;;128.30;2252.80;;;;;;4760547;30;20465;-87
2021/03/18 01:40:32;;;;;;;23.77;15.30;;;128.30;2252.80;;;;;;4760146;30;20047;-87
2021/03/18 01:42:58;;;;;;;22.97;14.67;;;128.20;2252.80;;;;;;4760099;30;20039;-90
2021/03/18 01:45:24;;;;;;;21.30;14.60;;;128.30;2252.80;;;;;;4757725;30;20043;-86
2021/03/18 01:47:53;;;;;;;21.20;13.70;;;128.20;2252.80;;;;;;4774148;30;20039;-86
2021/03/18 01:50:25;;;;;;;20.30;13.77;;;128.20;2252.80;;;;;;4759532;30;20123;-87
2021/03/18 01:52:51;;;;;;;21.07;14.23;;;128.20;2252.80;;;;;;4759832;30;20496;-88
2021/03/18 01:55:35;;;;;;;22.23;14.57;;;128.20;2252.80;;;;;;4758430;30;20524;-86
2021/03/18 01:58:01;;;;;;;19.13;13.53;;;128.10;2252.80;;;;;;4759366;30;20059;-87
2021/03/18 02:00:28;;;;;;;21.17;13.23;;;128.00;2252.80;;;;;;4759788;29;20035;-88
2021/03/18 02:02:56;;;;;;;22.70;13.57;;;128.00;2252.80;;;;;;4744636;30;20067;-86
2021/03/18 02:05:24;;;;;;;21.40;14.73;;;128.00;2252.80;;;;;;4759064;30;20036;-86
2021/03/18 02:07:53;;;;;;;22.33;13.50;;;128.00;2252.80;;;;;;4760196;30;20036;-86
2021/03/18 02:10:32;;;;;;;27.13;17.03;;;128.00;2252.80;;;;;;4758910;30;20039;-86
2021/03/18 02:12:58;;;;;;;23.17;13.77;;;103.30;2227.20;;;;;;4776300;30;20051;-86
2021/03/18 02:15:52;;;;;;;18.73;12.77;;;103.30;2227.20;;;;;;4760164;30;20036;-85
2021/03/18 02:18:36;;;;;;;23.17;13.80;;;103.30;2227.20;;;;;;4757493;30;20054;-88
2021/03/18 02:21:36;;;;;;;24.57;15.67;;;103.20;2227.20;;;;;;4756170;30;20051;-92
2021/03/18 02:24:17;;;;;;;22.53;13.83;;;103.20;2227.20;;;;;;4756071;30;20043;-87
2021/03/18 02:27:20;;;;;;;18.67;12.37;;;103.10;2227.20;;;;;;4757422;30;20059;-88
2021/03/18 02:30:10;;;;;;;30.50;20.80;;;103.10;2227.20;;;;;;4756242;30;20034;-87
2021/03/18 02:33:00;;;;;;;27.50;16.80;;;103.00;2227.20;;;;;;4755499;30;20032;-88
2021/03/18 02:35:28;;;;;;;24.57;15.10;;;103.00;2227.20;;;;;;4755751;30;20482;-88
2021/03/18 02:37:59;;;;;;;27.00;16.60;;;103.10;2227.20;;;;;;4755684;30;20126;-88
2021/03/18 02:40:26;;;;;;;27.60;15.40;;;103.00;2227.20;;;;;;4755268;30;20097;-87
2021/03/18 02:42:58;;;;;;;27.47;18.67;;;103.10;2227.20;;;;;;4756488;30;20028;-87
2021/03/18 02:45:28;;;;;;;26.87;15.37;;;103.10;2227.20;;;;;;4756995;30;20059;-87
2021/03/18 02:47:57;;;;;;;30.83;17.57;;;103.00;2227.20;;;;;;4755674;30;20046;-87
2021/03/18 02:50:24;;;;;;;30.60;16.93;;;103.00;2227.20;;;;;;4756085;30;20027;-86
2021/03/18 02:52:52;;;;;;;24.97;15.60;;;103.00;2227.20;;;;;;4759447;30;20040;-86
2021/03/18 02:55:18;;;;;;;28.33;18.13;;;103.00;2227.20;;;;;;4761806;30;20036;-87
2021/03/18 02:57:46;;;;;;;26.83;16.67;;;103.10;2227.20;;;;;;4762554;30;20032;-87
2021/03/18 03:00:13;;;;;;;25.83;16.43;;;103.20;2227.20;;;;;;4762686;30;20036;-87
2021/03/18 03:02:40;;;;;;;23.27;16.40;;;103.10;2227.20;;;;;;4765555;30;20066;-87
2021/03/18 03:05:08;;;;;;;25.20;15.93;;;103.30;2227.20;;;;;;4763281;30;20063;-87
2021/03/18 03:07:35;;;;;;;26.57;17.50;;;103.30;2227.20;;;;;;4765365;30;20036;-86
2021/03/18 03:10:04;;;;;;;27.17;17.40;;;103.30;2227.20;;;;;;4795537;24;20087;-86
2021/03/18 03:12:32;;;;;;;29.53;18.53;;;103.30;2227.20;;;;;;4802451;30;20035;-87
2021/03/18 03:15:00;;;;;;;26.27;17.30;;;103.20;2227.20;;;;;;4802445;30;20035;-88
2021/03/18 03:17:27;;;;;;;26.00;16.67;;;103.20;2227.20;;;;;;4798970;30;20027;-88
2021/03/18 03:19:56;;;;;;;26.73;17.20;;;103.20;2227.20;;;;;;4801876;29;20039;-87
2021/03/18 03:22:23;;;;;;;26.63;15.33;;;103.10;2227.20;;;;;;4796245;30;20044;-89
2021/03/18 03:24:50;;;;;;;23.83;16.47;;;128.00;2252.80;;;;;;4792286;30;20043;-87
2021/03/18 03:27:16;;;;;;;23.27;14.80;;;103.00;2227.20;;;;;;4791222;30;20058;-90
2021/03/18 03:29:44;;;;;;;25.40;16.70;;;103.20;2227.20;;;;;;4791239;30;20031;-88
2021/03/18 03:32:11;;;;;;;28.47;18.23;;;103.10;2227.20;;;;;;4791266;30;20073;-88
2021/03/18 03:34:38;;;;;;;34.50;17.43;;;103.10;2227.20;;;;;;4790611;29;20039;-89
2021/03/18 03:37:05;;;;;;;31.23;18.43;;;103.00;2227.20;;;;;;4791188;30;20119;-87
2021/03/18 03:39:32;;;;;;;29.33;17.93;;;103.10;2227.20;;;;;;4790542;29;20040;-89
2021/03/18 03:42:02;;;;;;;33.13;18.97;;;103.10;2227.20;;;;;;4790939;30;20047;-90
2021/03/18 03:44:28;;;;;;;29.33;17.70;;;103.20;2227.20;;;;;;4791510;30;20480;-86
2021/03/18 03:46:54;;;;;;;25.80;17.20;;;103.20;2227.20;;;;;;4790666;30;20035;-86
2021/03/18 03:49:19;;;;;;;33.40;19.00;;;103.20;2227.20;;;;;;4790363;29;20050;-87
2021/03/18 03:52:20;;;;;;;32.80;17.80;;;103.10;2227.20;;;;;;4790375;30;20077;-86
2021/03/18 03:55:01;;;;;;;37.57;22.97;;;103.10;2227.20;;;;;;4790487;30;20035;-86
2021/03/18 03:57:53;;;;;;;34.13;20.67;;;103.00;2227.20;;;;;;4790731;30;20071;-87
2021/03/18 04:00:19;;;;;;;38.83;23.33;;;103.20;2227.20;;;;;;4790293;30;20412;-88
2021/03/18 04:02:46;;;;;;;32.50;20.70;;;103.10;2227.20;;;;;;4790434;30;20097;-86
2021/03/18 04:05:14;;;;;;;33.60;21.60;;;103.20;2227.20;;;;;;4790324;29;20043;-89
2021/03/18 04:07:42;;;;;;;32.90;20.43;;;103.20;2227.20;;;;;;4790226;29;20043;-87
2021/03/18 04:10:11;;;;;;;27.33;17.47;;;103.20;2227.20;;;;;;4789792;29;20138;-87
2021/03/18 04:12:40;;;;;;;25.93;18.33;;;103.20;2227.20;;;;;;4790279;30;20370;-86
2021/03/18 04:15:09;;;;;;;32.53;19.03;;;103.20;2227.20;;;;;;4789969;30;20028;-88
2021/03/18 04:17:40;;;;;;;28.40;19.70;;;103.20;2227.20;;;;;;4790406;30;20055;-86
2021/03/18 04:20:09;;;;;;;28.37;19.00;;;103.20;2227.20;;;;;;4790113;29;20042;-88
2021/03/18 04:22:36;;;;;;;25.93;17.87;;;103.20;2227.20;;;;;;4790360;30;20062;-86
2021/03/18 04:25:07;;;;;;;28.17;17.00;;;103.20;2227.20;;;;;;4790830;30;20027;-88
2021/03/18 04:27:34;;;;;;;27.53;16.27;;;103.10;2227.20;;;;;;4790086;30;20485;-86
2021/03/18 04:30:01;;;;;;;27.23;18.43;;;103.10;2227.20;;;;;;4791023;30;20106;-87
2021/03/18 04:32:28;;;;;;;31.43;19.07;;;103.10;2227.20;;;;;;4789730;30;20389;-87
2021/03/18 04:34:55;;;;;;;35.47;21.13;;;103.00;2227.20;;;;;;4789738;29;20027;-87
2021/03/18 04:37:25;;;;;;;38.60;22.60;;;103.10;2227.20;;;;;;4790790;30;20035;-87
2021/03/18 04:39:54;;;;;;;35.07;21.47;;;103.20;2227.20;;;;;;4789653;30;20043;-86
2021/03/18 04:42:20;;;;;;;43.63;25.90;;;103.10;2227.20;;;;;;4789395;30;20059;-88
2021/03/18 04:44:47;;;;;;;36.33;25.00;;;103.10;2227.20;;;;;;4789916;30;20126;-87
2021/03/18 04:47:18;;;;;;;41.67;24.27;;;103.10;2227.20;;;;;;4790059;30;20035;-88
2021/03/18 04:49:45;;;;;;;42.40;25.60;;;103.20;2227.20;;;;;;4788721;29;20447;-87
2021/03/18 04:52:16;;;;;;;31.23;19.50;;;103.20;2227.20;;;;;;4789450;30;20088;-90
2021/03/18 04:54:42;;;;;;;32.00;20.70;;;103.10;2227.20;;;;;;4789022;30;20083;-89
2021/03/18 04:57:10;;;;;;;27.70;17.10;;;103.10;2227.20;;;;;;4789276;30;20188;-87
2021/03/18 04:59:37;;;;;;;28.13;17.73;;;103.00;2227.20;;;;;;4789300;30;20039;-87
2021/03/18 05:02:05;;;;;;;29.23;19.10;;;103.10;2227.20;;;;;;4789255;30;20187;-87
2021/03/18 05:04:33;;;;;;;33.33;20.57;;;103.10;2227.20;;;;;;4789073;29;20027;-86
2021/03/18 05:06:59;;;;;;;32.40;18.57;;;103.10;2227.20;;;;;;4788951;29;20504;-86
2021/03/18 05:09:25;;;;;;;32.30;20.10;;;103.00;2227.20;;;;;;4789146;30;20051;-88
2021/03/18 05:11:55;;;;;;;34.40;20.97;;;102.90;2227.20;;;;;;4789131;30;20039;-87
2021/03/18 05:14:22;;;;;;;30.07;19.43;;;103.00;2227.20;;;;;;4789281;30;20135;-86
2021/03/18 05:16:50;;;;;;;26.80;18.43;;;102.90;2227.20;;;;;;4789032;30;20039;-88
2021/03/18 05:19:22;;;;;;;30.07;19.53;;;102.80;2227.20;;;;;;4790850;29;20046;-88
2021/03/18 05:22:01;;;;;;;29.80;17.45;;;102.80;2227.20;;;;;;4790063;29;20082;-85
2021/03/18 05:24:28;;;;;;;32.03;19.23;;;102.70;2227.20;;;;;;4789541;30;20051;-87
2021/03/18 05:27:00;;;;;;;78.33;42.63;;;102.90;2227.20;;;;;;4789329;30;20035;-86
2021/03/18 05:29:25;;;;;;;59.73;34.80;;;102.90;2227.20;;;;;;4789086;30;20489;-88
2021/03/18 05:32:07;;;;;;;67.00;44.00;;;102.90;2227.20;;;;;;4789314;30;20042;-87
2021/03/18 05:34:32;;;;;;;54.33;31.13;;;102.90;2227.20;;;;;;4788531;29;20472;-87
2021/03/18 05:36:58;;;;;;;69.90;46.00;;;102.90;2227.20;;;;;;4788137;30;20126;-86
2021/03/18 05:39:24;;;;;;;106.17;67.57;;;102.90;2227.20;;;;;;4788803;29;20047;-87
2021/03/18 05:41:53;;;;;;;40.33;26.63;;;103.00;2227.20;;;;;;4788417;30;20052;-86
2021/03/18 05:44:19;;;;;;;75.17;39.30;;;103.00;2227.20;;;;;;4789184;30;20035;-87
2021/03/18 05:46:46;;;;;;;70.37;41.47;;;103.00;2227.20;;;;;;4788788;30;20035;-86
2021/03/18 05:49:12;;;;;;;71.83;46.47;;;103.10;2227.20;;;;;;4788564;30;20038;-86
2021/03/18 05:51:40;;;;;;;60.07;42.70;;;103.00;2227.20;;;;;;4788526;29;20132;-86
2021/03/18 05:54:08;;;;;;;50.43;34.17;;;103.00;2227.20;;;;;;4788866;30;20039;-85
2021/03/18 05:56:35;;;;;;;49.00;32.50;;;102.90;2227.20;;;;;;4788566;30;20031;-86
2021/03/18 05:59:01;;;;;;;57.17;37.07;;;103.00;2227.20;;;;;;4788861;30;20031;-85
2021/03/18 06:01:27;;;;;;;44.43;27.77;;;103.00;2227.20;;;;;;4788422;30;20131;-86
2021/03/18 06:03:54;;;;;;;53.60;31.10;;;103.00;2227.20;;;;;;4788558;30;20067;-86
2021/03/18 06:06:23;;;;;;;48.63;29.77;;;103.00;2227.20;;;;;;4788045;30;20035;-85
2021/03/18 06:08:49;;;;;;;49.63;29.30;;;103.10;2227.20;;;;;;4788033;29;20059;-90
2021/03/18 06:11:14;;;;;;;39.73;23.03;;;103.00;2227.20;;;;;;4789365;30;20073;-89
2021/03/18 06:13:40;;;;;;;33.47;20.50;;;103.00;2227.20;;;;;;4788843;30;20043;-86
2021/03/18 06:16:08;;;;;;;35.67;21.70;;;103.00;2227.20;;;;;;4790366;29;20043;-88
2021/03/18 06:18:37;;;;;;;48.63;28.30;;;103.00;2227.20;;;;;;4788631;30;20058;-87
2021/03/18 06:21:04;;;;;;;50.97;28.57;;;103.00;2227.20;;;;;;4789442;29;20052;-85
2021/03/18 06:23:32;;;;;;;54.50;32.87;;;103.00;2227.20;;;;;;4792186;30;20027;-85
2021/03/18 06:25:58;;;;;;;42.47;24.23;;;103.10;2227.20;;;;;;4791765;30;20031;-85
2021/03/18 06:28:29;;;;;;;39.63;26.07;;;103.10;2227.20;;;;;;4790473;30;20046;-87
2021/03/18 06:31:11;;;;;;;48.33;29.90;;;103.10;2227.20;;;;;;4793082;29;20031;-84
2021/03/18 06:33:44;;;;;;;51.20;33.27;;;103.10;2227.20;;;;;;4800505;30;20035;-86
2021/03/18 06:36:26;;;;;;;40.97;24.23;;;103.20;2227.20;;;;;;4800479;29;20341;-85
2021/03/18 06:38:57;;;;;;;59.67;33.57;;;103.20;2227.20;;;;;;4796267;30;20039;-85
2021/03/18 06:41:31;;;;;;;62.57;37.50;;;103.20;2227.20;;;;;;4791732;30;20039;-85
2021/03/18 06:43:57;;;;;;;116.70;67.37;;;103.20;2227.20;;;;;;4792116;30;20104;-86
2021/03/18 06:46:24;;;;;;;98.57;58.77;;;103.30;2227.20;;;;;;4791333;30;20493;-86
2021/03/18 06:48:50;;;;;;;94.73;54.27;;;103.30;2227.20;;;;;;4791486;30;20023;-86
2021/03/18 06:51:25;;;;;;;70.33;43.77;;;103.30;2227.20;;;;;;4791409;30;20063;-85
2021/03/18 06:53:52;;;;;;;65.67;40.63;;;128.00;2252.80;;;;;;4791242;30;20042;-84
2021/03/18 06:56:22;;;;;;;54.93;33.60;;;128.00;2252.80;;;;;;4791193;30;20035;-86
2021/03/18 06:58:48;;;;;;;49.53;29.77;;;128.00;2252.80;;;;;;4791371;30;20401;-86
2021/03/18 07:01:14;;;;;;;65.33;39.83;;;128.00;2252.80;;;;;;4791109;30;20048;-84
2021/03/18 07:03:40;;;;;;;55.77;34.80;;;128.00;2252.80;;;;;;4791158;30;20038;-88
2021/03/18 07:06:08;;;;;;;73.03;45.10;;;128.10;2252.80;;;;;;4790831;30;20046;-87
2021/03/18 07:08:40;;;;;;;232.03;109.73;;;128.00;2252.80;;;;;;4790846;30;20047;-87
2021/03/18 07:11:22;;;;;;;121.47;55.77;;;128.00;2252.80;;;;;;4776208;30;20039;-86
2021/03/18 07:13:49;;;;;;;55.03;35.38;;;128.00;2252.80;;;;;;4776561;30;20031;-88
2021/03/18 07:16:16;;;;;;;59.03;36.00;;;128.00;2252.80;;;;;;4776214;30;20047;-86
2021/03/18 07:18:53;;;;;;;57.40;32.37;;;128.00;2252.80;;;;;;4778518;30;20038;-85
2021/03/18 07:21:25;;;;;;;63.07;36.00;;;128.00;2252.80;;;;;;4775533;29;20043;-85
2021/03/18 07:23:50;;;;;;;55.43;33.13;;;128.10;2252.80;;;;;;4775943;30;20031;-88
2021/03/18 07:26:24;;;;;;;56.17;33.37;;;128.10;2252.80;;;;;;4776265;30;20384;-86
2021/03/18 07:29:17;;;;;;;45.47;27.03;;;128.10;2252.80;;;;;;4775893;30;20063;-85
2021/03/18 07:31:44;;;;;;;46.80;25.43;;;128.10;2252.80;;;;;;4687722;30;20080;-85
2021/03/18 07:34:10;;;;;;;41.30;25.30;;;128.10;2252.80;;;;;;4687649;30;20045;-85
2021/03/18 07:36:38;;;;;;;36.00;21.67;;;128.00;2252.80;;;;;;4701954;30;20037;-84
2021/03/18 07:39:05;;;;;;;36.87;22.23;;;128.00;2252.80;;;;;;4700888;30;20053;-88
2021/03/18 07:41:33;;;;;;;45.17;28.53;;;128.00;2252.80;;;;;;4702931;30;20047;-86
2021/03/18 07:43:59;;;;;;;37.30;26.17;;;128.10;2252.80;;;;;;4696777;30;20096;-85
2021/03/18 07:46:26;;;;;;;62.17;39.77;;;128.20;2252.80;;;;;;4691386;30;20115;-85
2021/03/18 07:49:04;;;;;;;51.63;31.77;;;128.30;2252.80;;;;;;4688086;30;20503;-85
2021/03/18 07:51:31;;;;;;;36.63;23.03;;;128.30;2252.80;;;;;;4688489;30;20030;-86
2021/03/18 07:53:59;;;;;;;36.33;20.40;;;128.30;2252.80;;;;;;4695472;30;20096;-86
2021/03/18 07:56:26;;;;;;;44.47;28.00;;;128.30;2252.80;;;;;;4689642;30;20077;-86
2021/03/18 07:58:53;;;;;;;45.67;28.77;;;128.30;2252.80;;;;;;4689809;30;20531;-87
2021/03/18 08:01:28;;;;;;;44.83;27.00;;;128.40;2252.80;;;;;;4688535;30;20443;-86
2021/03/18 08:03:54;;;;;;;35.60;23.77;;;128.40;2252.80;;;;;;4689373;30;20037;-84
2021/03/18 08:06:38;;;;;;;43.13;25.60;;;128.50;2252.80;;;;;;4689681;30;20030;-86
2021/03/18 08:09:23;;;;;;;39.77;24.77;;;128.40;2252.80;;;;;;4753502;30;20051;-85
2021/03/18 08:11:49;;;;;;;42.60;23.97;;;128.40;2252.80;;;;;;4794693;30;20035;-87
2021/03/18 08:14:23;;;;;;;44.03;25.37;;;128.40;2252.80;;;;;;4795146;30;20489;-85
2021/03/18 08:16:49;;;;;;;40.67;24.77;;;128.40;2252.80;;;;;;4796318;30;20039;-85
2021/03/18 08:19:20;;;;;;;38.67;23.70;;;128.40;2252.80;;;;;;4798063;29;20035;-85
2021/03/18 08:21:54;;;;;;;40.07;25.00;;;128.40;2252.80;;;;;;4791738;29;20051;-87
2021/03/18 08:24:32;;;;;;;34.50;21.03;;;128.40;2252.80;;;;;;4792124;29;20030;-88
2021/03/18 08:27:08;;;;;;;32.73;20.10;;;128.30;2252.80;;;;;;4790202;30;20034;-87
2021/03/18 08:29:40;;;;;;;30.83;17.80;;;128.30;2252.80;;;;;;4790000;30;20531;-89
2021/03/18 08:32:11;;;;;;;26.20;15.27;;;128.30;2252.80;;;;;;4790880;30;20031;-91
2021/03/18 08:34:57;;;;;;;22.60;14.10;;;128.20;2252.80;;;;;;4789983;29;20039;-87
2021/03/18 08:37:42;;;;;;;17.37;12.00;;;128.20;2252.80;;;;;;4790674;29;20066;-86
2021/03/18 08:40:08;;;;;;;22.93;14.67;;;128.20;2252.80;;;;;;4790901;30;20100;-87
2021/03/18 08:42:41;;;;;;;22.43;15.00;;;128.20;2252.80;;;;;;4790589;30;20035;-86
2021/03/18 08:45:19;;;;;;;23.13;15.60;;;128.20;2252.80;;;;;;4794418;30;20053;-85
2021/03/18 08:47:46;;;;;;;30.97;18.07;;;128.30;2252.80;;;;;;4802847;30;20041;-87
2021/03/18 08:50:37;;;;;;;31.10;18.07;;;128.30;2252.80;;;;;;4802045;29;20099;-84
2021/03/18 08:53:36;;;;;;;33.43;16.70;;;128.30;2252.80;;;;;;4796024;29;20057;-84
2021/03/18 08:56:02;;;;;;;26.30;15.10;;;128.40;2252.80;;;;;;4791023;30;20066;-89
2021/03/18 08:58:28;;;;;;;22.57;14.27;;;128.40;2252.80;;;;;;4789951;30;20062;-89
2021/03/18 09:00:54;;;;;;;26.47;16.53;;;128.50;2252.80;;;;;;4790091;30;20552;-87
2021/03/18 09:03:21;;;;;;;23.83;16.33;;;128.60;2252.80;;;;;;4789767;30;20061;-85
2021/03/18 09:05:55;;;;;;;21.50;13.10;;;128.80;2252.80;;;;;;4788999;29;20092;-85
2021/03/18 09:08:26;;;;;;;27.20;16.93;;;128.90;2252.80;;;;;;4789019;30;20032;-87
2021/03/18 09:11:02;;;;;;;26.73;17.20;;;153.60;2252.80;;;;;;4774401;30;20059;-86
2021/03/18 09:13:28;;;;;;;21.60;13.93;;;153.70;2252.80;;;;;;4774086;30;20046;-88
2021/03/18 09:16:04;;;;;;;52.10;16.77;;;153.80;2252.80;;;;;;4774168;30;20039;-86
2021/03/18 09:18:43;;;;;;;19.43;11.83;;;153.90;2227.20;;;;;;4774618;30;20034;-87
2021/03/18 09:21:12;;;;;;;16.77;10.23;;;154.00;2252.80;;;;;;4779092;24;20114;-90
2021/03/18 09:23:40;;;;;;;16.20;10.20;;;154.00;2227.20;;;;;;4771265;30;20396;-86
2021/03/18 09:26:09;;;;;;;16.73;10.67;;;154.10;2227.20;;;;;;4770920;30;20447;-87
2021/03/18 09:28:50;;;;;;;23.43;14.97;;;154.30;2201.60;;;;;;4770545;30;20066;-82
2021/03/18 09:31:22;;;;;;;25.83;15.20;;;179.20;2124.80;;;;;;4770255;30;20093;-82
2021/03/18 09:33:51;;;;;;;22.13;14.07;;;154.50;2150.40;;;;;;4770126;30;20036;-82
2021/03/18 09:36:17;;;;;;;22.00;14.73;;;179.30;2150.40;;;;;;4770263;30;20035;-85
2021/03/18 09:38:54;;;;;;;21.00;13.10;;;179.30;2073.60;;;;;;4755990;30;20028;-81
2021/03/18 09:41:23;;;;;;;16.77;10.33;;;179.30;2048.00;;;;;;4771293;30;20051;-84
2021/03/18 09:43:49;;;;;;;15.10;10.10;;;179.30;1996.80;;;;;;4770864;30;20566;-87
2021/03/18 09:46:19;;;;;;;15.07;10.37;;;179.30;1996.80;;;;;;4770857;30;20033;-81
2021/03/18 09:48:45;;;;;;;13.97;7.53;;;179.40;1996.80;;;;;;4770714;30;20493;-83
2021/03/18 09:51:15;;;;;;;16.30;10.03;;;179.30;1945.60;;;;;;4771211;30;20040;-83
2021/03/18 09:53:44;;;;;;;18.57;12.10;;;179.40;1971.20;;;;;;4770876;30;20032;-85
2021/03/18 09:56:15;;;;;;;24.67;15.63;;;179.60;1894.40;;;;;;4755411;30;20040;-82
2021/03/18 09:58:42;;;;;;;18.63;11.03;;;179.70;1894.40;;;;;;4771392;30;20027;-83
2021/03/18 10:01:23;;;;;;;15.30;8.77;;;179.70;1920.00;;;;;;4770331;30;20039;-82
2021/03/18 10:03:59;;;;;;;14.30;7.83;;;179.80;1868.80;;;;;;4756005;30;20040;-86
2021/03/18 10:06:29;;;;;;;13.53;8.30;;;179.80;1843.20;;;;;;4771323;30;20036;-86
2021/03/18 10:09:27;;;;;;;15.83;10.53;;;179.70;1843.20;;;;;;4777129;30;20102;-82
2021/03/18 10:11:56;;;;;;;17.97;9.30;;;179.50;1920.00;;;;;;4776986;30;20031;-86
2021/03/18 10:14:24;;;;;;;15.00;9.60;;;179.50;1945.60;;;;;;4765292;30;20063;-92
2021/03/18 10:16:53;;;;;;;17.47;10.07;;;179.50;1971.20;;;;;;4783171;30;20061;-90
2021/03/18 10:19:29;;;;;;;19.73;13.07;;;179.40;1945.60;;;;;;4782667;30;20036;-90
2021/03/18 10:21:58;;;;;;;19.77;11.43;;;179.40;1894.40;;;;;;4774941;30;20060;-90
2021/03/18 10:24:33;;;;;;;18.07;11.47;;;179.40;1945.60;;;;;;4779267;30;20065;-88
2021/03/18 10:27:29;;;;;;;20.50;15.60;;;179.60;1920.00;;;;;;4778587;30;20032;-91
2021/03/18 10:30:21;;;;;;;22.00;15.77;;;179.50;1894.40;;;;;;4777769;30;20024;-91
2021/03/18 10:33:07;;;;;;;11.23;7.07;;;179.50;1894.40;;;;;;4777210;30;20028;-88
2021/03/18 10:36:08;;;;;;;14.77;9.43;;;179.30;1792.00;;;;;;4777057;30;20031;-90
2021/03/18 10:38:47;;;;;;;20.23;11.67;;;179.40;1843.20;;;;;;4674407;30;20038;-92
2021/03/18 10:41:15;;;;;;;20.27;13.47;;;179.60;1894.40;;;;;;4675678;30;20064;-90
2021/03/18 10:43:42;;;;;;;17.03;11.67;;;179.70;1894.40;;;;;;4675183;30;20435;-90
2021/03/18 10:46:12;;;;;;;23.70;13.73;;;179.80;1843.20;;;;;;4674879;30;20044;-88
2021/03/18 10:48:39;;;;;;;15.50;9.17;;;179.80;1817.60;;;;;;4675206;30;20045;-90
2021/03/18 10:51:14;;;;;;;26.07;16.07;;;179.70;1792.00;;;;;;4674647;30;20115;-90
2021/03/18 10:53:42;;;;;;;14.93;10.23;;;179.70;1766.40;;;;;;4674596;30;20038;-87
2021/03/18 10:56:12;;;;;;;19.67;11.57;;;179.70;1817.60;;;;;;4670136;30;20035;-88
2021/03/18 10:58:38;;;;;;;16.73;11.00;;;179.70;1817.60;;;;;;4672623;30;20026;-87
2021/03/18 11:01:10;;;;;;;23.90;13.10;;;179.60;1894.40;;;;;;4673229;30;20057;-88
2021/03/18 11:03:39;;;;;;;25.77;16.03;;;179.60;1920.00;;;;;;4673088;30;20084;-86
2021/03/18 11:06:22;;;;;;;30.47;14.57;;;179.50;1894.40;;;;;;4671594;30;20042;-91
2021/03/18 11:08:58;;;;;;;31.53;16.63;;;179.30;1920.00;;;;;;4674092;30;20041;-86
2021/03/18 11:11:33;;;;;;;35.93;18.63;;;179.40;1920.00;;;;;;4675650;30;20030;-86
2021/03/18 11:14:08;;;;;;;20.73;11.83;;;154.50;1920.00;;;;;;4711274;30;20040;-86
2021/03/18 11:16:34;;;;;;;54.50;28.53;;;154.50;1945.60;;;;;;4759644;30;20028;-84
2021/03/18 11:19:03;;;;;;;50.90;25.83;;;154.50;1971.20;;;;;;4759881;30;20055;-86
2021/03/18 11:21:29;;;;;;;44.50;25.10;;;154.50;1945.60;;;;;;4771016;30;20509;-83
2021/03/18 11:24:13;;;;;;;31.23;14.83;;;154.40;1945.60;;;;;;4758952;30;20047;-86
2021/03/18 11:26:41;;;;;;;29.87;15.60;;;154.40;1920.00;;;;;;4766171;30;20036;-84
2021/03/18 11:29:16;;;;;;;59.67;30.27;;;154.40;1945.60;;;;;;4741736;30;20036;-81
2021/03/18 11:31:49;;;;;;;38.23;20.13;;;154.50;1971.20;;;;;;4755465;30;20043;-83
2021/03/18 11:34:27;;;;;;;52.57;24.63;;;154.50;1945.60;;;;;;4745681;30;20040;-82
2021/03/18 11:37:01;;;;;;;33.60;20.30;;;179.40;1920.00;;;;;;4742339;30;20109;-82
2021/03/18 11:39:27;;;;;;;34.07;20.87;;;179.30;1894.40;;;;;;4742805;30;20053;-83
2021/03/18 11:41:56;;;;;;;44.40;21.37;;;179.20;1945.60;;;;;;4776488;30;20048;-83
2021/03/18 11:44:22;;;;;;;25.97;16.50;;;154.40;1945.60;;;;;;4778383;30;20032;-89
2021/03/18 11:46:48;;;;;;;43.57;22.80;;;154.30;1971.20;;;;;;4773347;30;20060;-88
2021/03/18 11:49:20;;;;;;;72.27;32.20;;;154.20;1971.20;;;;;;4877428;24;20054;-87
2021/03/18 11:51:58;;;;;;;34.80;20.27;;;154.20;1971.20;;;;;;4795490;29;20464;-87
2021/03/18 11:54:30;;;;;;;53.57;24.77;;;154.10;1971.20;;;;;;4781052;29;20168;-87
2021/03/18 11:57:13;;;;;;;59.85;30.08;;;154.40;1971.20;;;;;;4793343;29;20034;-86
2021/03/18 11:59:45;;;;;;;44.25;23.23;;;154.20;2022.40;;;;;;4794159;29;20092;-85
2021/03/18 12:02:11;;;;;;;37.95;23.60;;;154.30;1996.80;;;;;;4769957;24;20072;-85
2021/03/18 12:04:46;;;;;;;29.03;18.37;;;154.30;1996.80;;;;;;4771021;30;20028;-89
2021/03/18 12:07:28;;;;;;;29.37;20.40;;;154.30;1996.80;;;;;;4770624;30;20036;-88
2021/03/18 12:10:11;;;;;;;26.73;18.45;;;154.40;1971.20;;;;;;4790109;24;20516;-89
2021/03/18 12:12:46;;;;;;;17.45;12.45;;;154.50;1996.80;;;;;;4797407;24;20105;-87
2021/03/18 12:15:24;;;;;;;21.67;13.33;;;154.50;1945.60;;;;;;4778451;30;20047;-91
2021/03/18 12:17:57;;;;;;;27.30;16.87;;;154.50;1971.20;;;;;;4769196;30;20039;-88